sensor_id;sensor_type;location;lat;lon;timestamp;P1;durP1;ratioP1;P2;durP2;ratioP2
8171;SDS011;4127;47.908;10.850;2023-05-08T00:01:24;1.70;;;1.60;;
8171;SDS011;4127;47.908;10.850;2023-05-08T00:03:51;1.70;;;1.60;;
8171;SDS011;4127;47.908;10.850;2023-05-08T00:06:19;1.60;;;1.50;;
8171;SDS011;4127;47.908;10.850;2023-05-08T00:08:45;1.60;;;1.50;;
8171;SDS011;4127;47.908;10.850;2023-05-08T00:11:12;1.70;;;1.60;;
8171;SDS011;4127;47.908;10.850;2023-05-08T00:13:39;1.50;;;1.40;;
8171;SDS011;4127;47.908;10.850;2023-05-08T00:16:09;1.70;;;1.60;;
8171;SDS011;4127;47.908;10.850;2023-05-08T00:18:38;1.40;;;1.30;;
8171;SDS011;4127;47.908;10.850;2023-05-08T00:21:05;1.70;;;1.60;;
8171;SDS011;4127;47.908;10.850;2023-05-08T00:23:32;1.70;;;1.53;;
8171;SDS011;4127;47.908;10.850;2023-05-08T00:25:59;2.00;;;1.90;;
8171;SDS011;4127;47.908;10.850;2023-05-08T00:28:26;1.70;;;1.60;;
8171;SDS011;4127;47.908;10.850;2023-05-08T00:30:53;1.53;;;1.40;;
8171;SDS011;4127;47.908;10.850;2023-05-08T00:33:20;1.80;;;1.70;;
8171;SDS011;4127;47.908;10.850;2023-05-08T00:35:46;1.60;;;1.50;;
8171;SDS011;4127;47.908;10.850;2023-05-08T00:38:13;1.60;;;1.50;;
8171;SDS011;4127;47.908;10.850;2023-05-08T00:40:40;1.60;;;1.50;;
8171;SDS011;4127;47.908;10.850;2023-05-08T00:43:08;1.50;;;1.40;;
8171;SDS011;4127;47.908;10.850;2023-05-08T00:45:35;2.10;;;1.40;;
8171;SDS011;4127;47.908;10.850;2023-05-08T00:48:04;1.60;;;1.50;;
8171;SDS011;4127;47.908;10.850;2023-05-08T00:50:31;1.60;;;1.50;;
8171;SDS011;4127;47.908;10.850;2023-05-08T00:52:59;1.77;;;1.60;;
8171;SDS011;4127;47.908;10.850;2023-05-08T00:55:28;1.50;;;1.40;;
8171;SDS011;4127;47.908;10.850;2023-05-08T00:57:55;1.53;;;1.43;;
8171;SDS011;4127;47.908;10.850;2023-05-08T01:00:22;1.40;;;1.30;;
8171;SDS011;4127;47.908;10.850;2023-05-08T01:02:49;1.50;;;1.40;;
8171;SDS011;4127;47.908;10.850;2023-05-08T01:05:16;1.50;;;1.40;;
8171;SDS011;4127;47.908;10.850;2023-05-08T01:07:44;1.40;;;1.33;;
8171;SDS011;4127;47.908;10.850;2023-05-08T01:10:11;2.13;;;1.40;;
8171;SDS011;4127;47.908;10.850;2023-05-08T01:12:43;1.47;;;1.37;;
8171;SDS011;4127;47.908;10.850;2023-05-08T01:15:21;1.20;;;1.20;;
8171;SDS011;4127;47.908;10.850;2023-05-08T01:21:23;1.20;;;1.20;;
8171;SDS011;4127;47.908;10.850;2023-05-08T01:27:37;1.60;;;1.50;;
8171;SDS011;4127;47.908;10.850;2023-05-08T01:30:26;1.47;;;1.37;;
8171;SDS011;4127;47.908;10.850;2023-05-08T01:39:20;1.37;;;1.27;;
8171;SDS011;4127;47.908;10.850;2023-05-08T01:42:01;1.40;;;1.30;;
8171;SDS011;4127;47.908;10.850;2023-05-08T01:44:34;1.70;;;1.60;;
8171;SDS011;4127;47.908;10.850;2023-05-08T01:47:24;1.53;;;1.43;;
8171;SDS011;4127;47.908;10.850;2023-05-08T01:53:08;1.50;;;1.40;;
8171;SDS011;4127;47.908;10.850;2023-05-08T01:55:47;1.40;;;1.30;;
8171;SDS011;4127;47.908;10.850;2023-05-08T01:58:16;1.30;;;1.20;;
8171;SDS011;4127;47.908;10.850;2023-05-08T02:00:44;1.30;;;1.20;;
8171;SDS011;4127;47.908;10.850;2023-05-08T02:03:13;1.37;;;1.30;;
8171;SDS011;4127;47.908;10.850;2023-05-08T02:05:41;1.40;;;1.30;;
8171;SDS011;4127;47.908;10.850;2023-05-08T02:08:10;1.20;;;1.20;;
8171;SDS011;4127;47.908;10.850;2023-05-08T02:10:39;1.40;;;1.30;;
8171;SDS011;4127;47.908;10.850;2023-05-08T02:13:09;1.60;;;1.50;;
8171;SDS011;4127;47.908;10.850;2023-05-08T02:15:37;1.40;;;1.30;;
8171;SDS011;4127;47.908;10.850;2023-05-08T02:18:06;1.63;;;1.53;;
8171;SDS011;4127;47.908;10.850;2023-05-08T02:20:34;1.50;;;1.40;;
8171;SDS011;4127;47.908;10.850;2023-05-08T02:23:02;1.60;;;1.50;;
8171;SDS011;4127;47.908;10.850;2023-05-08T02:25:30;1.60;;;1.50;;
8171;SDS011;4127;47.908;10.850;2023-05-08T02:27:57;1.97;;;1.53;;
8171;SDS011;4127;47.908;10.850;2023-05-08T02:30:25;1.60;;;1.50;;
8171;SDS011;4127;47.908;10.850;2023-05-08T02:32:52;1.50;;;1.40;;
8171;SDS011;4127;47.908;10.850;2023-05-08T02:35:25;1.50;;;1.40;;
8171;SDS011;4127;47.908;10.850;2023-05-08T02:37:54;1.53;;;1.43;;
8171;SDS011;4127;47.908;10.850;2023-05-08T02:40:23;1.70;;;1.60;;
8171;SDS011;4127;47.908;10.850;2023-05-08T02:42:53;1.40;;;1.40;;
8171;SDS011;4127;47.908;10.850;2023-05-08T02:45:22;1.50;;;1.40;;
8171;SDS011;4127;47.908;10.850;2023-05-08T03:01:37;2.60;;;1.40;;
8171;SDS011;4127;47.908;10.850;2023-05-08T03:04:16;1.60;;;1.50;;
8171;SDS011;4127;47.908;10.850;2023-05-08T03:07:03;1.60;;;1.50;;
8171;SDS011;4127;47.908;10.850;2023-05-08T03:09:35;1.67;;;1.57;;
8171;SDS011;4127;47.908;10.850;2023-05-08T03:16:06;1.50;;;1.40;;
8171;SDS011;4127;47.908;10.850;2023-05-08T03:18:42;1.70;;;1.60;;
8171;SDS011;4127;47.908;10.850;2023-05-08T03:27:52;1.50;;;1.40;;
8171;SDS011;4127;47.908;10.850;2023-05-08T03:30:20;1.70;;;1.60;;
8171;SDS011;4127;47.908;10.850;2023-05-08T03:32:48;1.20;;;1.20;;
8171;SDS011;4127;47.908;10.850;2023-05-08T03:35:16;1.67;;;1.57;;
8171;SDS011;4127;47.908;10.850;2023-05-08T03:37:43;1.70;;;1.60;;
8171;SDS011;4127;47.908;10.850;2023-05-08T03:40:10;1.60;;;1.50;;
8171;SDS011;4127;47.908;10.850;2023-05-08T03:42:38;1.47;;;1.37;;
8171;SDS011;4127;47.908;10.850;2023-05-08T03:45:07;1.60;;;1.50;;
8171;SDS011;4127;47.908;10.850;2023-05-08T03:47:36;1.60;;;1.50;;
8171;SDS011;4127;47.908;10.850;2023-05-08T03:50:03;1.30;;;1.30;;
8171;SDS011;4127;47.908;10.850;2023-05-08T03:52:31;1.40;;;1.30;;
8171;SDS011;4127;47.908;10.850;2023-05-08T03:54:58;6.67;;;6.07;;
8171;SDS011;4127;47.908;10.850;2023-05-08T03:57:26;2.50;;;2.30;;
8171;SDS011;4127;47.908;10.850;2023-05-08T04:10:58;1.40;;;1.30;;
8171;SDS011;4127;47.908;10.850;2023-05-08T04:13:33;2.03;;;1.40;;
8171;SDS011;4127;47.908;10.850;2023-05-08T04:16:05;1.50;;;1.40;;
8171;SDS011;4127;47.908;10.850;2023-05-08T04:18:37;2.50;;;1.43;;
8171;SDS011;4127;47.908;10.850;2023-05-08T04:21:10;1.60;;;1.50;;
8171;SDS011;4127;47.908;10.850;2023-05-08T04:23:43;1.60;;;1.50;;
8171;SDS011;4127;47.908;10.850;2023-05-08T04:26:13;1.50;;;1.40;;
8171;SDS011;4127;47.908;10.850;2023-05-08T04:28:43;1.50;;;1.40;;
8171;SDS011;4127;47.908;10.850;2023-05-08T04:31:12;1.70;;;1.60;;
8171;SDS011;4127;47.908;10.850;2023-05-08T04:33:43;2.10;;;1.50;;
8171;SDS011;4127;47.908;10.850;2023-05-08T04:36:11;1.50;;;1.40;;
8171;SDS011;4127;47.908;10.850;2023-05-08T04:38:39;1.27;;;1.27;;
8171;SDS011;4127;47.908;10.850;2023-05-08T04:41:06;1.50;;;1.40;;
8171;SDS011;4127;47.908;10.850;2023-05-08T04:43:34;1.40;;;1.30;;
8171;SDS011;4127;47.908;10.850;2023-05-08T04:46:01;1.30;;;1.20;;
8171;SDS011;4127;47.908;10.850;2023-05-08T04:48:31;1.43;;;1.33;;
8171;SDS011;4127;47.908;10.850;2023-05-08T04:50:59;1.30;;;1.20;;
8171;SDS011;4127;47.908;10.850;2023-05-08T04:53:26;1.40;;;1.30;;
8171;SDS011;4127;47.908;10.850;2023-05-08T04:55:53;1.20;;;1.20;;
8171;SDS011;4127;47.908;10.850;2023-05-08T04:58:20;1.37;;;1.27;;
8171;SDS011;4127;47.908;10.850;2023-05-08T05:00:47;1.50;;;1.40;;
8171;SDS011;4127;47.908;10.850;2023-05-08T05:03:14;1.50;;;1.40;;
8171;SDS011;4127;47.908;10.850;2023-05-08T05:05:41;1.43;;;1.33;;
8171;SDS011;4127;47.908;10.850;2023-05-08T05:08:08;1.83;;;1.43;;
8171;SDS011;4127;47.908;10.850;2023-05-08T05:10:36;1.60;;;1.50;;
8171;SDS011;4127;47.908;10.850;2023-05-08T05:13:03;1.23;;;1.23;;
8171;SDS011;4127;47.908;10.850;2023-05-08T05:15:30;1.50;;;1.40;;
8171;SDS011;4127;47.908;10.850;2023-05-08T05:17:57;1.33;;;1.23;;
8171;SDS011;4127;47.908;10.850;2023-05-08T05:20:24;1.57;;;1.47;;
8171;SDS011;4127;47.908;10.850;2023-05-08T05:22:51;1.40;;;1.30;;
8171;SDS011;4127;47.908;10.850;2023-05-08T05:25:18;1.33;;;1.30;;
8171;SDS011;4127;47.908;10.850;2023-05-08T05:27:45;1.30;;;1.30;;
8171;SDS011;4127;47.908;10.850;2023-05-08T05:30:12;1.47;;;1.37;;
8171;SDS011;4127;47.908;10.850;2023-05-08T05:32:39;1.30;;;1.30;;
8171;SDS011;4127;47.908;10.850;2023-05-08T05:35:06;1.50;;;1.40;;
8171;SDS011;4127;47.908;10.850;2023-05-08T05:37:35;1.57;;;1.47;;
8171;SDS011;4127;47.908;10.850;2023-05-08T05:40:02;1.70;;;1.60;;
8171;SDS011;4127;47.908;10.850;2023-05-08T05:42:33;1.50;;;1.40;;
8171;SDS011;4127;47.908;10.850;2023-05-08T05:45:00;1.87;;;1.77;;
8171;SDS011;4127;47.908;10.850;2023-05-08T05:47:27;3.20;;;2.90;;
8171;SDS011;4127;47.908;10.850;2023-05-08T05:49:54;4.23;;;3.83;;
8171;SDS011;4127;47.908;10.850;2023-05-08T05:52:22;5.43;;;4.70;;
8171;SDS011;4127;47.908;10.850;2023-05-08T05:54:49;5.33;;;4.83;;
8171;SDS011;4127;47.908;10.850;2023-05-08T05:57:16;4.80;;;4.30;;
8171;SDS011;4127;47.908;10.850;2023-05-08T05:59:43;5.63;;;4.87;;
8171;SDS011;4127;47.908;10.850;2023-05-08T06:02:10;3.00;;;2.72;;
8171;SDS011;4127;47.908;10.850;2023-05-08T06:04:44;2.70;;;2.20;;
8171;SDS011;4127;47.908;10.850;2023-05-08T06:07:11;1.90;;;1.80;;
8171;SDS011;4127;47.908;10.850;2023-05-08T06:09:38;2.03;;;1.57;;
8171;SDS011;4127;47.908;10.850;2023-05-08T06:12:04;1.80;;;1.70;;
8171;SDS011;4127;47.908;10.850;2023-05-08T06:14:31;2.20;;;2.03;;
8171;SDS011;4127;47.908;10.850;2023-05-08T06:16:58;1.40;;;1.40;;
8171;SDS011;4127;47.908;10.850;2023-05-08T06:19:25;2.00;;;1.90;;
8171;SDS011;4127;47.908;10.850;2023-05-08T06:21:53;1.67;;;1.40;;
8171;SDS011;4127;47.908;10.850;2023-05-08T06:24:21;1.70;;;1.60;;
8171;SDS011;4127;47.908;10.850;2023-05-08T06:26:48;1.80;;;1.50;;
8171;SDS011;4127;47.908;10.850;2023-05-08T06:29:14;1.33;;;1.30;;
8171;SDS011;4127;47.908;10.850;2023-05-08T06:31:41;1.47;;;1.37;;
8171;SDS011;4127;47.908;10.850;2023-05-08T06:34:08;1.30;;;1.30;;
8171;SDS011;4127;47.908;10.850;2023-05-08T06:36:35;1.50;;;1.40;;
8171;SDS011;4127;47.908;10.850;2023-05-08T06:39:03;1.50;;;1.40;;
8171;SDS011;4127;47.908;10.850;2023-05-08T06:41:31;1.40;;;1.30;;
8171;SDS011;4127;47.908;10.850;2023-05-08T06:43:58;1.50;;;1.40;;
8171;SDS011;4127;47.908;10.850;2023-05-08T06:46:25;1.20;;;1.20;;
8171;SDS011;4127;47.908;10.850;2023-05-08T06:48:52;1.40;;;1.30;;
8171;SDS011;4127;47.908;10.850;2023-05-08T06:51:18;1.60;;;1.50;;
8171;SDS011;4127;47.908;10.850;2023-05-08T06:53:48;1.50;;;1.40;;
8171;SDS011;4127;47.908;10.850;2023-05-08T06:56:15;1.10;;;1.10;;
8171;SDS011;4127;47.908;10.850;2023-05-08T06:58:42;1.37;;;1.27;;
8171;SDS011;4127;47.908;10.850;2023-05-08T07:01:22;1.37;;;1.37;;
8171;SDS011;4127;47.908;10.850;2023-05-08T07:03:49;1.20;;;1.20;;
8171;SDS011;4127;47.908;10.850;2023-05-08T07:06:16;1.43;;;1.33;;
8171;SDS011;4127;47.908;10.850;2023-05-08T07:08:43;1.53;;;1.20;;
8171;SDS011;4127;47.908;10.850;2023-05-08T07:11:10;1.30;;;1.20;;
8171;SDS011;4127;47.908;10.850;2023-05-08T07:13:37;1.57;;;1.20;;
8171;SDS011;4127;47.908;10.850;2023-05-08T07:16:10;1.07;;;1.00;;
8171;SDS011;4127;47.908;10.850;2023-05-08T07:18:37;1.27;;;1.27;;
8171;SDS011;4127;47.908;10.850;2023-05-08T07:21:04;1.97;;;1.40;;
8171;SDS011;4127;47.908;10.850;2023-05-08T07:23:31;2.00;;;1.30;;
8171;SDS011;4127;47.908;10.850;2023-05-08T07:25:58;1.47;;;1.37;;
8171;SDS011;4127;47.908;10.850;2023-05-08T07:28:25;1.00;;;1.00;;
8171;SDS011;4127;47.908;10.850;2023-05-08T07:30:52;1.43;;;1.33;;
8171;SDS011;4127;47.908;10.850;2023-05-08T07:33:19;1.43;;;1.33;;
8171;SDS011;4127;47.908;10.850;2023-05-08T07:35:46;1.50;;;1.40;;
8171;SDS011;4127;47.908;10.850;2023-05-08T07:38:12;1.40;;;1.30;;
8171;SDS011;4127;47.908;10.850;2023-05-08T07:40:39;1.37;;;1.37;;
8171;SDS011;4127;47.908;10.850;2023-05-08T07:43:06;1.83;;;1.73;;
8171;SDS011;4127;47.908;10.850;2023-05-08T07:45:34;1.97;;;1.83;;
8171;SDS011;4127;47.908;10.850;2023-05-08T07:48:01;1.43;;;1.33;;
8171;SDS011;4127;47.908;10.850;2023-05-08T07:50:28;1.30;;;1.20;;
8171;SDS011;4127;47.908;10.850;2023-05-08T07:52:54;1.97;;;1.87;;
8171;SDS011;4127;47.908;10.850;2023-05-08T07:55:21;1.47;;;1.37;;
8171;SDS011;4127;47.908;10.850;2023-05-08T07:57:48;1.40;;;1.30;;
8171;SDS011;4127;47.908;10.850;2023-05-08T08:00:15;1.27;;;1.27;;
8171;SDS011;4127;47.908;10.850;2023-05-08T08:02:42;1.40;;;1.30;;
8171;SDS011;4127;47.908;10.850;2023-05-08T08:05:10;1.77;;;1.20;;
8171;SDS011;4127;47.908;10.850;2023-05-08T08:07:38;1.40;;;1.30;;
8171;SDS011;4127;47.908;10.850;2023-05-08T08:10:04;1.30;;;1.30;;
8171;SDS011;4127;47.908;10.850;2023-05-08T08:12:32;1.13;;;1.13;;
8171;SDS011;4127;47.908;10.850;2023-05-08T08:14:59;1.50;;;1.40;;
8171;SDS011;4127;47.908;10.850;2023-05-08T08:17:26;1.17;;;1.07;;
8171;SDS011;4127;47.908;10.850;2023-05-08T08:19:54;1.57;;;1.47;;
8171;SDS011;4127;47.908;10.850;2023-05-08T08:22:21;1.47;;;1.40;;
8171;SDS011;4127;47.908;10.850;2023-05-08T08:24:49;1.27;;;1.17;;
8171;SDS011;4127;47.908;10.850;2023-05-08T08:27:19;1.40;;;1.30;;
8171;SDS011;4127;47.908;10.850;2023-05-08T08:29:46;1.67;;;1.57;;
8171;SDS011;4127;47.908;10.850;2023-05-08T08:32:13;2.20;;;1.40;;
8171;SDS011;4127;47.908;10.850;2023-05-08T08:34:40;1.33;;;1.23;;
8171;SDS011;4127;47.908;10.850;2023-05-08T08:37:06;1.40;;;1.30;;
8171;SDS011;4127;47.908;10.850;2023-05-08T08:39:33;1.33;;;1.30;;
8171;SDS011;4127;47.908;10.850;2023-05-08T08:42:00;1.40;;;1.30;;
8171;SDS011;4127;47.908;10.850;2023-05-08T08:44:27;1.33;;;1.23;;
8171;SDS011;4127;47.908;10.850;2023-05-08T08:46:55;1.40;;;1.30;;
8171;SDS011;4127;47.908;10.850;2023-05-08T08:49:27;2.17;;;1.40;;
8171;SDS011;4127;47.908;10.850;2023-05-08T08:52:01;1.30;;;1.30;;
8171;SDS011;4127;47.908;10.850;2023-05-08T08:54:32;1.70;;;1.60;;
8171;SDS011;4127;47.908;10.850;2023-05-08T08:57:01;1.80;;;1.70;;
8171;SDS011;4127;47.908;10.850;2023-05-08T08:59:33;1.87;;;1.40;;
8171;SDS011;4127;47.908;10.850;2023-05-08T09:02:08;1.60;;;1.50;;
8171;SDS011;4127;47.908;10.850;2023-05-08T09:04:37;2.03;;;1.87;;
8171;SDS011;4127;47.908;10.850;2023-05-08T09:07:04;2.00;;;1.90;;
8171;SDS011;4127;47.908;10.850;2023-05-08T09:09:34;2.13;;;2.00;;
8171;SDS011;4127;47.908;10.850;2023-05-08T09:12:06;2.10;;;1.90;;
8171;SDS011;4127;47.908;10.850;2023-05-08T09:14:33;1.50;;;1.40;;
8171;SDS011;4127;47.908;10.850;2023-05-08T09:16:59;1.70;;;1.60;;
8171;SDS011;4127;47.908;10.850;2023-05-08T09:19:27;1.80;;;1.70;;
8171;SDS011;4127;47.908;10.850;2023-05-08T09:21:54;1.70;;;1.60;;
8171;SDS011;4127;47.908;10.850;2023-05-08T09:24:47;1.60;;;1.50;;
8171;SDS011;4127;47.908;10.850;2023-05-08T09:27:24;1.60;;;1.50;;
8171;SDS011;4127;47.908;10.850;2023-05-08T09:32:28;1.77;;;1.60;;
8171;SDS011;4127;47.908;10.850;2023-05-08T09:34:58;1.60;;;1.50;;
8171;SDS011;4127;47.908;10.850;2023-05-08T09:37:26;1.80;;;1.70;;
8171;SDS011;4127;47.908;10.850;2023-05-08T09:39:54;1.70;;;1.60;;
8171;SDS011;4127;47.908;10.850;2023-05-08T09:42:48;1.50;;;1.40;;
8171;SDS011;4127;47.908;10.850;2023-05-08T09:45:40;1.63;;;1.53;;
8171;SDS011;4127;47.908;10.850;2023-05-08T09:48:09;1.70;;;1.60;;
8171;SDS011;4127;47.908;10.850;2023-05-08T09:50:36;1.80;;;1.70;;
8171;SDS011;4127;47.908;10.850;2023-05-08T09:53:03;1.90;;;1.80;;
8171;SDS011;4127;47.908;10.850;2023-05-08T09:55:44;1.80;;;1.70;;
8171;SDS011;4127;47.908;10.850;2023-05-08T09:58:12;3.30;;;3.00;;
8171;SDS011;4127;47.908;10.850;2023-05-08T10:00:38;2.70;;;2.50;;
8171;SDS011;4127;47.908;10.850;2023-05-08T10:03:05;1.90;;;1.80;;
8171;SDS011;4127;47.908;10.850;2023-05-08T10:05:33;1.93;;;1.83;;
8171;SDS011;4127;47.908;10.850;2023-05-08T10:08:22;2.33;;;2.13;;
8171;SDS011;4127;47.908;10.850;2023-05-08T10:10:51;2.40;;;2.20;;
8171;SDS011;4127;47.908;10.850;2023-05-08T10:13:18;2.30;;;2.10;;
8171;SDS011;4127;47.908;10.850;2023-05-08T10:15:45;2.60;;;2.40;;
8171;SDS011;4127;47.908;10.850;2023-05-08T10:18:17;3.50;;;3.20;;
8171;SDS011;4127;47.908;10.850;2023-05-08T10:20:47;3.50;;;2.60;;
8171;SDS011;4127;47.908;10.850;2023-05-08T10:23:15;3.57;;;3.27;;
8171;SDS011;4127;47.908;10.850;2023-05-08T10:25:46;3.60;;;2.93;;
8171;SDS011;4127;47.908;10.850;2023-05-08T10:30:59;2.57;;;2.37;;
8171;SDS011;4127;47.908;10.850;2023-05-08T10:33:28;2.90;;;2.70;;
8171;SDS011;4127;47.908;10.850;2023-05-08T10:35:59;2.80;;;2.60;;
8171;SDS011;4127;47.908;10.850;2023-05-08T10:38:26;2.60;;;2.40;;
8171;SDS011;4127;47.908;10.850;2023-05-08T10:40:53;3.70;;;2.80;;
8171;SDS011;4127;47.908;10.850;2023-05-08T10:43:23;2.87;;;2.67;;
8171;SDS011;4127;47.908;10.850;2023-05-08T10:45:51;2.50;;;2.30;;
8171;SDS011;4127;47.908;10.850;2023-05-08T10:50:57;2.47;;;2.27;;
8171;SDS011;4127;47.908;10.850;2023-05-08T10:53:43;2.57;;;2.20;;
8171;SDS011;4127;47.908;10.850;2023-05-08T10:56:17;2.90;;;2.70;;
8171;SDS011;4127;47.908;10.850;2023-05-08T10:58:55;2.40;;;2.23;;
8171;SDS011;4127;47.908;10.850;2023-05-08T11:01:23;3.00;;;2.80;;
8171;SDS011;4127;47.908;10.850;2023-05-08T11:03:51;3.97;;;3.67;;
8171;SDS011;4127;47.908;10.850;2023-05-08T11:09:17;7.03;;;6.43;;
8171;SDS011;4127;47.908;10.850;2023-05-08T11:12:35;7.27;;;6.60;;
8171;SDS011;4127;47.908;10.850;2023-05-08T11:15:06;6.97;;;6.37;;
8171;SDS011;4127;47.908;10.850;2023-05-08T11:17:34;7.73;;;6.93;;
8171;SDS011;4127;47.908;10.850;2023-05-08T11:20:02;7.33;;;6.73;;
8171;SDS011;4127;47.908;10.850;2023-05-08T11:22:31;7.90;;;7.20;;
8171;SDS011;4127;47.908;10.850;2023-05-08T11:25:03;7.60;;;6.90;;
8171;SDS011;4127;47.908;10.850;2023-05-08T11:30:19;5.57;;;5.17;;
8171;SDS011;4127;47.908;10.850;2023-05-08T11:46:00;9.13;;;8.33;;
8171;SDS011;4127;47.908;10.850;2023-05-08T11:48:31;8.73;;;7.93;;
8171;SDS011;4127;47.908;10.850;2023-05-08T11:50:59;9.27;;;8.47;;
8171;SDS011;4127;47.908;10.850;2023-05-08T11:53:26;9.00;;;8.20;;
8171;SDS011;4127;47.908;10.850;2023-05-08T11:55:55;8.77;;;8.07;;
8171;SDS011;4127;47.908;10.850;2023-05-08T11:58:22;9.40;;;8.50;;
8171;SDS011;4127;47.908;10.850;2023-05-08T12:00:49;9.40;;;8.60;;
8171;SDS011;4127;47.908;10.850;2023-05-08T12:03:17;9.37;;;8.57;;
8171;SDS011;4127;47.908;10.850;2023-05-08T12:05:45;9.20;;;8.40;;
8171;SDS011;4127;47.908;10.850;2023-05-08T12:08:14;8.73;;;7.93;;
8171;SDS011;4127;47.908;10.850;2023-05-08T12:13:18;8.93;;;8.13;;
8171;SDS011;4127;47.908;10.850;2023-05-08T12:15:47;9.37;;;8.57;;
8171;SDS011;4127;47.908;10.850;2023-05-08T12:18:15;9.17;;;8.27;;
8171;SDS011;4127;47.908;10.850;2023-05-08T12:20:43;10.03;;;9.03;;
8171;SDS011;4127;47.908;10.850;2023-05-08T12:23:09;9.60;;;8.70;;
8171;SDS011;4127;47.908;10.850;2023-05-08T12:25:37;10.80;;;9.87;;
8171;SDS011;4127;47.908;10.850;2023-05-08T12:28:05;11.07;;;10.10;;
8171;SDS011;4127;47.908;10.850;2023-05-08T12:30:33;10.53;;;9.53;;
8171;SDS011;4127;47.908;10.850;2023-05-08T12:33:00;11.13;;;10.13;;
8171;SDS011;4127;47.908;10.850;2023-05-08T12:35:28;11.07;;;10.17;;
8171;SDS011;4127;47.908;10.850;2023-05-08T12:38:01;10.67;;;9.77;;
8171;SDS011;4127;47.908;10.850;2023-05-08T12:40:30;10.50;;;9.50;;
8171;SDS011;4127;47.908;10.850;2023-05-08T12:43:02;10.97;;;9.97;;
8171;SDS011;4127;47.908;10.850;2023-05-08T12:45:30;11.77;;;10.67;;
8171;SDS011;4127;47.908;10.850;2023-05-08T12:48:21;11.07;;;10.03;;
8171;SDS011;4127;47.908;10.850;2023-05-08T12:50:48;11.03;;;10.03;;
8171;SDS011;4127;47.908;10.850;2023-05-08T12:53:15;12.93;;;11.73;;
8171;SDS011;4127;47.908;10.850;2023-05-08T12:55:52;12.33;;;11.23;;
8171;SDS011;4127;47.908;10.850;2023-05-08T12:58:23;12.20;;;11.10;;
8171;SDS011;4127;47.908;10.850;2023-05-08T13:01:10;13.30;;;12.00;;
8171;SDS011;4127;47.908;10.850;2023-05-08T13:03:41;14.20;;;12.83;;
8171;SDS011;4127;47.908;10.850;2023-05-08T13:06:18;14.13;;;12.77;;
8171;SDS011;4127;47.908;10.850;2023-05-08T13:08:51;14.87;;;13.43;;
8171;SDS011;4127;47.908;10.850;2023-05-08T13:11:27;14.70;;;13.30;;
8171;SDS011;4127;47.908;10.850;2023-05-08T13:13:56;15.27;;;13.87;;
8171;SDS011;4127;47.908;10.850;2023-05-08T13:16:23;15.83;;;14.33;;
8171;SDS011;4127;47.908;10.850;2023-05-08T13:18:50;16.33;;;14.67;;
8171;SDS011;4127;47.908;10.850;2023-05-08T13:21:16;15.97;;;14.43;;
8171;SDS011;4127;47.908;10.850;2023-05-08T13:23:43;16.20;;;14.67;;
8171;SDS011;4127;47.908;10.850;2023-05-08T13:26:11;16.53;;;14.93;;
8171;SDS011;4127;47.908;10.850;2023-05-08T13:28:37;18.20;;;16.43;;
8171;SDS011;4127;47.908;10.850;2023-05-08T13:31:04;18.97;;;17.07;;
8171;SDS011;4127;47.908;10.850;2023-05-08T13:33:31;21.00;;;18.90;;
8171;SDS011;4127;47.908;10.850;2023-05-08T13:35:58;19.83;;;17.80;;
8171;SDS011;4127;47.908;10.850;2023-05-08T13:38:24;21.83;;;18.90;;
8171;SDS011;4127;47.908;10.850;2023-05-08T13:40:51;22.17;;;19.97;;
8171;SDS011;4127;47.908;10.850;2023-05-08T13:43:18;20.97;;;18.87;;
8171;SDS011;4127;47.908;10.850;2023-05-08T13:45:45;23.40;;;20.87;;
8171;SDS011;4127;47.908;10.850;2023-05-08T13:48:12;22.77;;;20.07;;
8171;SDS011;4127;47.908;10.850;2023-05-08T13:50:38;22.73;;;20.33;;
8171;SDS011;4127;47.908;10.850;2023-05-08T13:53:05;21.40;;;19.27;;
8171;SDS011;4127;47.908;10.850;2023-05-08T13:55:32;22.60;;;20.23;;
8171;SDS011;4127;47.908;10.850;2023-05-08T13:57:59;23.50;;;21.13;;
8171;SDS011;4127;47.908;10.850;2023-05-08T14:00:27;24.67;;;22.37;;
8171;SDS011;4127;47.908;10.850;2023-05-08T14:02:54;22.00;;;19.63;;
8171;SDS011;4127;47.908;10.850;2023-05-08T14:05:20;23.10;;;21.00;;
8171;SDS011;4127;47.908;10.850;2023-05-08T14:07:47;22.83;;;20.53;;
8171;SDS011;4127;47.908;10.850;2023-05-08T14:10:14;21.50;;;19.23;;
8171;SDS011;4127;47.908;10.850;2023-05-08T14:12:42;22.87;;;20.43;;
8171;SDS011;4127;47.908;10.850;2023-05-08T14:15:09;22.53;;;20.23;;
8171;SDS011;4127;47.908;10.850;2023-05-08T14:17:37;21.90;;;19.07;;
8171;SDS011;4127;47.908;10.850;2023-05-08T14:20:04;22.20;;;19.90;;
8171;SDS011;4127;47.908;10.850;2023-05-08T14:22:31;22.40;;;20.20;;
8171;SDS011;4127;47.908;10.850;2023-05-08T14:24:58;22.03;;;19.73;;
8171;SDS011;4127;47.908;10.850;2023-05-08T14:27:25;21.17;;;19.10;;
8171;SDS011;4127;47.908;10.850;2023-05-08T14:29:52;18.93;;;17.03;;
8171;SDS011;4127;47.908;10.850;2023-05-08T14:32:19;19.90;;;17.87;;
8171;SDS011;4127;47.908;10.850;2023-05-08T14:34:46;19.10;;;17.17;;
8171;SDS011;4127;47.908;10.850;2023-05-08T14:37:13;20.23;;;18.13;;
8171;SDS011;4127;47.908;10.850;2023-05-08T14:39:39;18.57;;;16.77;;
8171;SDS011;4127;47.908;10.850;2023-05-08T14:42:06;17.53;;;15.73;;
8171;SDS011;4127;47.908;10.850;2023-05-08T14:44:36;16.27;;;14.77;;
8171;SDS011;4127;47.908;10.850;2023-05-08T14:47:03;16.13;;;14.47;;
8171;SDS011;4127;47.908;10.850;2023-05-08T14:49:29;14.87;;;13.17;;
8171;SDS011;4127;47.908;10.850;2023-05-08T14:52:04;16.77;;;15.03;;
8171;SDS011;4127;47.908;10.850;2023-05-08T14:54:31;17.40;;;15.60;;
8171;SDS011;4127;47.908;10.850;2023-05-08T14:56:59;17.30;;;15.57;;
8171;SDS011;4127;47.908;10.850;2023-05-08T14:59:25;18.97;;;17.07;;
8171;SDS011;4127;47.908;10.850;2023-05-08T15:01:52;20.17;;;17.97;;
8171;SDS011;4127;47.908;10.850;2023-05-08T15:04:19;20.63;;;18.47;;
8171;SDS011;4127;47.908;10.850;2023-05-08T15:06:46;21.17;;;19.07;;
8171;SDS011;4127;47.908;10.850;2023-05-08T15:09:13;21.57;;;19.27;;
8171;SDS011;4127;47.908;10.850;2023-05-08T15:11:41;21.70;;;19.40;;
8171;SDS011;4127;47.908;10.850;2023-05-08T15:14:08;22.13;;;19.93;;
8171;SDS011;4127;47.908;10.850;2023-05-08T15:16:35;21.40;;;19.27;;
8171;SDS011;4127;47.908;10.850;2023-05-08T15:19:02;22.50;;;20.30;;
8171;SDS011;4127;47.908;10.850;2023-05-08T15:21:29;21.37;;;19.23;;
8171;SDS011;4127;47.908;10.850;2023-05-08T15:23:56;23.27;;;20.87;;
8171;SDS011;4127;47.908;10.850;2023-05-08T15:26:22;22.30;;;20.00;;
8171;SDS011;4127;47.908;10.850;2023-05-08T15:28:49;20.07;;;18.17;;
8171;SDS011;4127;47.908;10.850;2023-05-08T15:31:16;22.63;;;20.33;;
8171;SDS011;4127;47.908;10.850;2023-05-08T15:33:43;19.43;;;17.73;;
8171;SDS011;4127;47.908;10.850;2023-05-08T15:36:11;20.43;;;18.43;;
8171;SDS011;4127;47.908;10.850;2023-05-08T15:38:39;21.80;;;19.70;;
8171;SDS011;4127;47.908;10.850;2023-05-08T15:41:06;19.20;;;17.50;;
8171;SDS011;4127;47.908;10.850;2023-05-08T15:43:40;20.70;;;18.70;;
8171;SDS011;4127;47.908;10.850;2023-05-08T15:46:08;22.47;;;20.23;;
8171;SDS011;4127;47.908;10.850;2023-05-08T15:48:35;21.17;;;18.93;;
8171;SDS011;4127;47.908;10.850;2023-05-08T15:51:02;20.33;;;18.30;;
8171;SDS011;4127;47.908;10.850;2023-05-08T15:53:28;20.80;;;18.63;;
8171;SDS011;4127;47.908;10.850;2023-05-08T15:55:55;21.30;;;18.73;;
8171;SDS011;4127;47.908;10.850;2023-05-08T15:58:22;19.80;;;17.80;;
8171;SDS011;4127;47.908;10.850;2023-05-08T16:00:50;21.13;;;19.13;;
8171;SDS011;4127;47.908;10.850;2023-05-08T16:03:17;19.63;;;17.70;;
8171;SDS011;4127;47.908;10.850;2023-05-08T16:05:44;20.70;;;18.70;;
8171;SDS011;4127;47.908;10.850;2023-05-08T16:08:11;19.47;;;17.57;;
8171;SDS011;4127;47.908;10.850;2023-05-08T16:10:39;19.07;;;17.30;;
8171;SDS011;4127;47.908;10.850;2023-05-08T16:13:07;18.73;;;17.03;;
8171;SDS011;4127;47.908;10.850;2023-05-08T16:15:34;19.37;;;17.57;;
8171;SDS011;4127;47.908;10.850;2023-05-08T16:18:01;19.20;;;17.20;;
8171;SDS011;4127;47.908;10.850;2023-05-08T16:20:28;17.90;;;16.23;;
8171;SDS011;4127;47.908;10.850;2023-05-08T16:22:55;18.57;;;16.87;;
8171;SDS011;4127;47.908;10.850;2023-05-08T16:25:23;19.83;;;17.97;;